Time;durP1;ratioP1;P1;durP2;ratioP2;P2;SDS_P1;SDS_P2;PMS_P1;PMS_P2;Temp;Humidity;BMP_temperature;BMP_pressure;BME280_temperature;BME280_humidity;BME280_pressure;Samples;Min_cycle;Max_cycle;Signal;HPM_P1;HPM_P2
2020/12/13 00:00:10;;;;;;;92.27;40.70;;;;;;;8.29;100.00;99148.31;5118726;28;20473;-30
2020/12/13 00:02:56;;;;;;;105.33;43.13;;;;;;;8.07;100.00;99152.13;5118326;28;20198;-31
2020/12/13 00:05:43;;;;;;;109.93;44.17;;;;;;;8.16;100.00;99157.16;5118193;28;20488;-31
2020/12/13 00:08:29;;;;;;;118.57;45.03;;;;;;;8.24;100.00;99159.56;5118353;28;20198;-31
2020/12/13 00:11:17;;;;;;;105.43;41.93;;;;;;;8.31;100.00;99158.59;5119196;28;20301;-31
2020/12/13 00:14:04;;;;;;;101.07;42.87;;;;;;;8.40;100.00;99160.19;5118767;28;20348;-31
2020/12/13 00:16:51;;;;;;;110.70;43.60;;;;;;;8.75;100.00;99167.28;5118170;28;20201;-31
2020/12/13 00:19:38;;;;;;;110.97;42.20;;;;;;;8.69;100.00;99169.97;5120087;28;20196;-31
2020/12/13 00:22:24;;;;;;;98.53;41.80;;;;;;;8.68;100.00;99171.69;5121684;28;20212;-31
2020/12/13 00:25:10;;;;;;;88.47;37.57;;;;;;;8.34;100.00;99174.03;5119242;28;20199;-31
2020/12/13 00:27:56;;;;;;;93.63;40.27;;;;;;;8.75;100.00;99164.69;5118055;28;20198;-31
2020/12/13 00:30:43;;;;;;;105.40;40.57;;;;;;;8.89;100.00;99175.59;5077370;28;20592;-31
2020/12/13 00:33:29;;;;;;;120.03;44.47;;;;;;;8.48;100.00;99169.47;5077205;28;20282;-31
2020/12/13 00:36:18;;;;;;;97.90;41.53;;;;;;;8.24;100.00;99170.72;5076907;28;20706;-31
2020/12/13 00:39:04;;;;;;;98.90;42.00;;;;;;;8.45;100.00;99174.69;5077027;28;20297;-31
2020/12/13 00:41:53;;;;;;;102.83;41.67;;;;;;;8.73;100.00;99181.94;5077382;28;20210;-31
2020/12/13 00:44:38;;;;;;;112.50;45.73;;;;;;;8.29;100.00;99183.53;5081210;28;20619;-31
2020/12/13 00:47:28;;;;;;;125.23;44.17;;;;;;;8.36;100.00;99181.75;5078087;28;20697;-31
2020/12/13 00:50:14;;;;;;;102.37;41.13;;;;;;;8.48;100.00;99181.53;5077528;28;20203;-31
2020/12/13 00:53:00;;;;;;;118.47;45.10;;;;;;;8.26;100.00;99189.59;5077436;28;20568;-31
2020/12/13 00:55:48;;;;;;;108.37;42.57;;;;;;;8.48;100.00;99192.69;5077734;28;20202;-31
2020/12/13 00:58:35;;;;;;;109.90;43.70;;;;;;;8.30;100.00;99193.81;5077538;28;20597;-32
2020/12/13 01:01:20;;;;;;;128.03;46.87;;;;;;;8.41;100.00;99196.22;5078202;28;20218;-31
2020/12/13 01:04:08;;;;;;;101.70;41.40;;;;;;;8.41;100.00;99198.81;5081211;28;20570;-31
2020/12/13 01:07:02;;;;;;;116.43;42.90;;;;;;;8.29;100.00;99193.84;5077110;28;20208;-31
2020/12/13 01:09:48;;;;;;;113.27;45.07;;;;;;;8.34;100.00;99194.66;5077409;28;20356;-31
2020/12/13 01:12:34;;;;;;;110.37;43.33;;;;;;;8.63;100.00;99200.13;5098147;22;20287;-69
2020/12/13 01:15:20;;;;;;;121.47;45.50;;;;;;;8.47;100.00;99203.88;5117232;28;20631;-69
2020/12/13 01:18:05;;;;;;;124.43;45.40;;;;;;;8.52;100.00;99207.22;5116724;28;20566;-69
2020/12/13 01:20:52;;;;;;;118.00;45.90;;;;;;;8.46;100.00;99212.47;5119570;28;20203;-69
2020/12/13 01:23:38;;;;;;;111.57;43.27;;;;;;;8.64;100.00;99216.44;5121549;28;20202;-69
2020/12/13 01:26:24;;;;;;;104.03;41.80;;;;;;;8.73;100.00;99221.44;5121481;28;20204;-69
2020/12/13 01:29:10;;;;;;;110.00;44.13;;;;;;;8.87;100.00;99239.25;5121629;28;20210;-69
2020/12/13 01:31:57;;;;;;;105.67;41.20;;;;;;;8.85;100.00;99231.53;5121580;28;20220;-69
2020/12/13 01:34:42;;;;;;;118.07;44.13;;;;;;;8.74;100.00;99240.34;5121411;28;20261;-69
2020/12/13 01:37:30;;;;;;;134.13;46.73;;;;;;;8.49;100.00;99233.03;5121377;28;20611;-69
2020/12/13 01:40:15;;;;;;;116.17;41.37;;;;;;;8.42;100.00;99239.16;5120930;28;20271;-69
2020/12/13 01:43:01;;;;;;;110.13;41.60;;;;;;;8.55;100.00;99238.09;5121114;28;20194;-69
2020/12/13 01:45:47;;;;;;;102.70;40.63;;;;;;;8.68;100.00;99245.59;5121458;28;20198;-69
2020/12/13 01:48:33;;;;;;;107.90;42.37;;;;;;;8.53;100.00;99252.75;5120974;28;20332;-69
2020/12/13 01:51:24;;;;;;;112.57;40.77;;;;;;;8.83;100.00;99255.63;5120983;28;20206;-69
2020/12/13 01:54:14;;;;;;;115.13;40.83;;;;;;;8.88;100.00;99264.16;5120948;28;20453;-69
2020/12/13 01:57:02;;;;;;;110.43;43.10;;;;;;;8.81;100.00;99268.56;5121143;28;20204;-69
2020/12/13 01:59:50;;;;;;;123.70;41.87;;;;;;;8.69;100.00;99265.34;5120862;28;20295;-69
2020/12/13 02:02:41;;;;;;;116.63;42.27;;;;;;;8.74;100.00;99272.13;5120525;28;20192;-69
2020/12/13 02:05:30;;;;;;;121.03;44.07;;;;;;;8.69;100.00;99273.09;5120589;28;20496;-69
2020/12/13 02:08:20;;;;;;;115.93;41.03;;;;;;;8.86;100.00;99281.38;5120519;28;20206;-69
2020/12/13 02:11:08;;;;;;;135.70;44.87;;;;;;;8.74;100.00;99281.59;5120714;28;20615;-69
2020/12/13 02:13:54;;;;;;;122.60;43.43;;;;;;;8.73;100.00;99278.16;5120432;28;20333;-69
2020/12/13 02:16:43;;;;;;;132.30;44.70;;;;;;;8.81;100.00;99271.13;5120851;28;20335;-69
2020/12/13 02:19:29;;;;;;;138.33;46.73;;;;;;;8.60;100.00;99266.34;5120953;28;20194;-69
2020/12/13 02:22:16;;;;;;;140.80;44.17;;;;;;;8.69;100.00;99278.25;5120502;28;20261;-69
2020/12/13 02:25:14;;;;;;;128.17;40.47;;;;;;;8.85;100.00;99271.94;5120668;28;20322;-69
2020/12/13 02:28:00;;;;;;;151.87;44.13;;;;;;;8.67;100.00;99272.25;5120747;28;20254;-69
2020/12/13 02:30:46;;;;;;;137.80;45.30;;;;;;;8.85;100.00;99279.66;5119723;28;20289;-69
2020/12/13 02:33:32;;;;;;;148.73;47.17;;;;;;;8.80;100.00;99284.91;5119935;28;20226;-69
2020/12/13 02:36:18;;;;;;;128.93;44.57;;;;;;;8.82;100.00;99285.72;5120255;28;20501;-69
2020/12/13 02:39:06;;;;;;;146.57;47.67;;;;;;;8.89;100.00;99282.19;5120511;28;20202;-69
2020/12/13 02:42:00;;;;;;;141.10;43.90;;;;;;;9.20;100.00;99289.34;5120333;28;20604;-69
2020/12/13 02:44:46;;;;;;;130.60;42.17;;;;;;;9.22;100.00;99287.59;5119749;28;20280;-69
2020/12/13 02:47:32;;;;;;;154.33;48.50;;;;;;;8.87;100.00;99283.94;5120042;28;20196;-70
2020/12/13 02:50:18;;;;;;;157.27;46.40;;;;;;;8.87;100.00;99290.81;5120204;28;20222;-69
2020/12/13 02:53:03;;;;;;;147.30;45.73;;;;;;;9.13;100.00;99298.09;5119727;28;20334;-70
2020/12/13 02:55:50;;;;;;;160.67;47.63;;;;;;;9.15;100.00;99296.34;5119910;28;20207;-69
2020/12/13 02:58:36;;;;;;;152.03;46.10;;;;;;;8.94;100.00;99292.41;5120023;28;20263;-69
2020/12/13 03:01:21;;;;;;;165.10;46.97;;;;;;;9.08;100.00;99305.06;5118814;28;20203;-69
2020/12/13 03:04:07;;;;;;;166.10;46.13;;;;;;;9.25;100.00;99316.75;5118992;28;20195;-69
2020/12/13 03:06:55;;;;;;;164.03;48.97;;;;;;;9.28;100.00;99319.28;5119113;28;20274;-69
2020/12/13 03:09:40;;;;;;;161.50;46.97;;;;;;;9.37;100.00;99323.44;5118955;28;20238;-69
2020/12/13 03:12:27;;;;;;;193.97;51.13;;;;;;;9.07;100.00;99322.25;5118974;28;20704;-69
2020/12/13 03:15:13;;;;;;;150.07;45.13;;;;;;;9.23;100.00;99326.25;5119026;28;20618;-70
2020/12/13 03:17:58;;;;;;;156.20;44.87;;;;;;;9.29;100.00;99331.31;5118971;28;20198;-69
2020/12/13 03:20:44;;;;;;;159.20;45.10;;;;;;;9.17;100.00;99338.44;5119169;28;20259;-70
2020/12/13 03:23:30;;;;;;;175.30;49.80;;;;;;;9.23;100.00;99336.59;5118915;28;20608;-69
2020/12/13 03:26:17;;;;;;;188.07;49.77;;;;;;;9.31;100.00;99339.88;5119619;28;20197;-69
2020/12/13 03:29:04;;;;;;;166.40;46.47;;;;;;;9.17;100.00;99335.88;5119290;28;20339;-69
2020/12/13 03:31:50;;;;;;;193.90;52.17;;;;;;;9.21;100.00;99338.34;5118647;28;20294;-70
2020/12/13 03:34:36;;;;;;;175.77;49.07;;;;;;;9.11;100.00;99341.13;5118472;28;20271;-69
2020/12/13 03:37:21;;;;;;;188.67;48.93;;;;;;;9.18;100.00;99343.59;5119057;28;20282;-69
2020/12/13 03:40:09;;;;;;;202.43;52.43;;;;;;;9.19;100.00;99353.00;5119068;28;20292;-69
2020/12/13 03:42:54;;;;;;;231.77;55.67;;;;;;;9.22;100.00;99354.66;5118141;28;20286;-69
2020/12/13 03:45:41;;;;;;;222.43;53.93;;;;;;;9.11;100.00;99349.72;5120003;28;20252;-69
2020/12/13 03:48:26;;;;;;;222.17;54.40;;;;;;;9.01;100.00;99355.91;5118557;28;20198;-69
2020/12/13 03:51:12;;;;;;;253.27;58.07;;;;;;;8.89;100.00;99351.81;5118633;28;20536;-69
2020/12/13 03:53:58;;;;;;;225.83;52.67;;;;;;;9.12;100.00;99361.75;5118023;28;20225;-69
2020/12/13 03:56:44;;;;;;;225.10;52.50;;;;;;;9.23;100.00;99367.53;5118763;28;20260;-70
2020/12/13 03:59:30;;;;;;;230.67;56.27;;;;;;;9.26;100.00;99369.22;5118465;28;20195;-70
2020/12/13 04:02:17;;;;;;;247.30;56.57;;;;;;;9.00;100.00;99367.09;5118226;28;20199;-69
2020/12/13 04:05:03;;;;;;;208.77;54.73;;;;;;;8.99;100.00;99362.84;5118466;28;20194;-69
2020/12/13 04:07:49;;;;;;;245.80;58.27;;;;;;;9.03;100.00;99367.03;5118535;28;20487;-70
2020/12/13 04:10:35;;;;;;;221.17;51.43;;;;;;;9.29;100.00;99376.91;5118223;28;20490;-69
2020/12/13 04:13:20;;;;;;;238.17;58.60;;;;;;;9.04;100.00;99375.63;5118207;28;20302;-69
2020/12/13 04:16:06;;;;;;;230.40;55.67;;;;;;;9.11;100.00;99380.69;5118426;28;20214;-70
2020/12/13 04:18:53;;;;;;;229.00;53.23;;;;;;;9.33;100.00;99379.44;5118697;28;20251;-70
2020/12/13 04:21:39;;;;;;;221.40;55.00;;;;;;;9.23;100.00;99377.88;5118281;28;20198;-69
2020/12/13 04:24:25;;;;;;;201.03;49.70;;;;;;;9.11;100.00;99388.41;5118160;28;20195;-69
2020/12/13 04:27:11;;;;;;;216.73;54.63;;;;;;;9.39;100.00;99385.38;5118064;28;20217;-69
2020/12/13 04:29:56;;;;;;;230.43;56.40;;;;;;;9.28;100.00;99388.13;5118108;28;20256;-69
2020/12/13 04:32:42;;;;;;;213.33;53.97;;;;;;;9.19;100.00;99393.47;5117878;28;20198;-69
2020/12/13 04:35:29;;;;;;;209.63;53.37;;;;;;;9.28;100.00;99388.97;5117758;28;20202;-69
2020/12/13 04:38:14;;;;;;;229.00;55.50;;;;;;;9.36;100.00;99395.75;5117840;28;20236;-69
2020/12/13 04:41:00;;;;;;;230.03;56.43;;;;;;;9.40;100.00;99402.53;5117909;28;20288;-69
2020/12/13 04:43:46;;;;;;;215.97;56.17;;;;;;;9.33;100.00;99404.38;5117557;28;20194;-69
2020/12/13 04:46:32;;;;;;;244.13;56.40;;;;;;;9.39;100.00;99404.28;5117923;28;20199;-70
2020/12/13 04:49:21;;;;;;;255.53;60.20;;;;;;;9.23;100.00;99408.84;5118628;28;20611;-69
2020/12/13 04:52:10;;;;;;;233.63;55.83;;;;;;;9.14;100.00;99409.00;5119564;28;20198;-69
2020/12/13 04:54:56;;;;;;;272.03;59.60;;;;;;;9.05;100.00;99405.72;5118905;28;20272;-69
2020/12/13 04:57:42;;;;;;;230.17;54.63;;;;;;;9.18;100.00;99415.84;5117487;28;20286;-69
2020/12/13 05:00:31;;;;;;;243.30;56.67;;;;;;;9.30;100.00;99415.59;5117299;28;20292;-70
2020/12/13 05:03:17;;;;;;;233.13;56.37;;;;;;;9.46;100.00;99420.50;5117591;28;20594;-69
2020/12/13 05:06:02;;;;;;;220.57;55.57;;;;;;;9.25;100.00;99421.72;5117416;28;20276;-70
2020/12/13 05:08:49;;;;;;;246.60;58.63;;;;;;;9.23;100.00;99423.47;5117544;28;20202;-70
2020/12/13 05:11:34;;;;;;;252.70;59.07;;;;;;;9.04;100.00;99424.66;5117507;28;20260;-70
2020/12/13 05:14:20;;;;;;;231.47;57.90;;;;;;;9.18;100.00;99428.72;5116858;28;20226;-69
2020/12/13 05:17:07;;;;;;;204.30;53.23;;;;;;;9.29;100.00;99434.53;5117677;28;20248;-70
2020/12/13 05:19:53;;;;;;;232.10;56.40;;;;;;;9.17;100.00;99442.50;5117118;28;20481;-69
2020/12/13 05:22:39;;;;;;;214.97;52.73;;;;;;;9.28;100.00;99443.16;5117232;28;20201;-69
2020/12/13 05:25:31;;;;;;;240.97;54.73;;;;;;;9.24;100.00;99448.41;5117282;28;20583;-69
2020/12/13 05:28:17;;;;;;;219.27;54.63;;;;;;;9.41;100.00;99448.09;5117272;28;20195;-69
2020/12/13 05:31:04;;;;;;;203.60;53.93;;;;;;;9.24;100.00;99450.97;5117131;28;20199;-70
2020/12/13 05:33:53;;;;;;;228.73;52.33;;;;;;;9.18;100.00;99449.38;5117162;28;20321;-69
2020/12/13 05:36:41;;;;;;;194.70;51.50;;;;;;;9.32;100.00;99456.88;5116995;28;20348;-70
2020/12/13 05:39:34;;;;;;;193.17;47.83;;;;;;;9.33;100.00;99469.75;5117122;28;20267;-70
2020/12/13 05:42:34;;;;;;;209.27;50.57;;;;;;;9.14;100.00;99470.09;5117364;28;20245;-69
2020/12/13 05:45:30;;;;;;;212.13;50.13;;;;;;;9.07;100.00;99471.91;5117103;28;20214;-69
2020/12/13 05:48:30;;;;;;;213.03;50.37;;;;;;;9.01;100.00;99476.28;5117133;28;20536;-69
2020/12/13 05:51:22;;;;;;;208.50;50.37;;;;;;;9.04;100.00;99478.81;5118498;28;20201;-69
2020/12/13 05:54:12;;;;;;;178.27;45.97;;;;;;;9.16;100.00;99471.78;5119253;28;20242;-69
2020/12/13 05:56:59;;;;;;;181.80;46.37;;;;;;;9.40;100.00;99480.81;5117299;28;20303;-70
2020/12/13 05:59:46;;;;;;;195.60;49.43;;;;;;;9.08;100.00;99478.75;5116871;28;20225;-70
2020/12/13 06:02:33;;;;;;;207.67;51.23;;;;;;;8.88;100.00;99478.22;5116763;28;20616;-71
2020/12/13 06:05:22;;;;;;;175.87;46.67;;;;;;;9.09;100.00;99492.50;5117858;28;20600;-70
2020/12/13 06:08:14;;;;;;;199.87;51.33;;;;;;;9.12;100.00;99490.75;5120275;28;20268;-70
2020/12/13 06:11:02;;;;;;;189.23;50.10;;;;;;;8.99;100.00;99499.56;5123626;28;20221;-70
2020/12/13 06:13:53;;;;;;;211.97;51.00;;;;;;;9.02;100.00;99496.06;5123788;28;20284;-69
2020/12/13 06:16:41;;;;;;;208.17;51.47;;;;;;;8.99;100.00;99494.41;5121242;28;20294;-69
2020/12/13 06:19:28;;;;;;;223.53;51.27;;;;;;;8.92;100.00;99495.34;5121031;28;20469;-70
2020/12/13 06:22:15;;;;;;;213.83;52.27;;;;;;;8.77;100.00;99505.88;5120582;28;20309;-69
2020/12/13 06:25:02;;;;;;;179.37;46.53;;;;;;;9.09;100.00;99508.00;5120755;28;20219;-69
2020/12/13 06:27:49;;;;;;;174.13;47.47;;;;;;;9.36;100.00;99507.56;5121020;28;20210;-69
2020/12/13 06:30:37;;;;;;;222.27;53.73;;;;;;;9.07;100.00;99510.59;5120384;28;20199;-69
2020/12/13 06:33:23;;;;;;;210.07;53.03;;;;;;;8.87;100.00;99516.03;5120564;28;20493;-70
2020/12/13 06:36:09;;;;;;;183.90;50.27;;;;;;;8.88;100.00;99514.31;5121388;28;20195;-69
2020/12/13 06:38:57;;;;;;;193.03;49.47;;;;;;;9.04;100.00;99520.09;5120510;28;20201;-69
2020/12/13 06:41:44;;;;;;;208.10;52.33;;;;;;;8.94;100.00;99521.97;5120329;28;20198;-72
2020/12/13 06:44:30;;;;;;;186.60;49.93;;;;;;;9.04;100.00;99522.69;5120363;28;20347;-73
2020/12/13 06:47:23;;;;;;;224.70;53.47;;;;;;;8.90;100.00;99526.31;5120104;28;20205;-72
2020/12/13 06:50:11;;;;;;;183.73;47.03;;;;;;;8.91;100.00;99528.03;5120108;28;20260;-72
2020/12/13 06:52:57;;;;;;;218.17;51.77;;;;;;;9.04;100.00;99530.41;5123761;28;20244;-72
2020/12/13 06:55:43;;;;;;;216.77;51.13;;;;;;;8.95;100.00;99539.16;5125076;28;20592;-72
2020/12/13 06:58:28;;;;;;;254.63;57.60;;;;;;;9.07;100.00;99543.28;5119935;28;20586;-72
2020/12/13 07:01:16;;;;;;;198.30;53.80;;;;;;;9.08;100.00;99547.56;5119990;28;20248;-72
2020/12/13 07:04:23;;;;;;;218.60;54.90;;;;;;;9.22;100.00;99545.63;5119681;28;20190;-72
2020/12/13 07:07:14;;;;;;;237.27;59.40;;;;;;;9.30;100.00;99551.53;5119756;28;20263;-72
2020/12/13 07:10:02;;;;;;;250.80;61.47;;;;;;;9.04;100.00;99551.91;5119891;28;20476;-72
2020/12/13 07:12:55;;;;;;;258.20;61.07;;;;;;;9.01;100.00;99554.53;5119788;28;20226;-73
2020/12/13 07:15:47;;;;;;;273.77;58.83;;;;;;;8.91;100.00;99558.13;5119622;28;20476;-72
2020/12/13 07:18:35;;;;;;;213.27;51.33;;;;;;;9.13;100.00;99548.38;5119273;28;20202;-73
2020/12/13 07:21:21;;;;;;;237.53;55.47;;;;;;;9.27;100.00;99562.75;5119223;28;20609;-72
2020/12/13 07:24:09;;;;;;;207.00;52.67;;;;;;;9.36;100.00;99569.53;5119579;28;20198;-73
2020/12/13 07:26:55;;;;;;;215.47;52.27;;;;;;;9.34;100.00;99566.09;5119930;28;20251;-73
2020/12/13 07:29:41;;;;;;;213.30;50.43;;;;;;;9.24;100.00;99573.13;5119053;28;20344;-73
2020/12/13 07:32:26;;;;;;;202.00;52.40;;;;;;;9.41;100.00;99572.88;5118816;28;20202;-73
2020/12/13 07:35:13;;;;;;;210.03;54.70;;;;;;;9.45;100.00;99578.84;5118876;28;20325;-73
2020/12/13 07:38:00;;;;;;;221.67;56.43;;;;;;;9.36;100.00;99574.69;5118959;28;20206;-73
2020/12/13 07:40:46;;;;;;;263.47;59.33;;;;;;;9.19;100.00;99582.66;5118903;28;20328;-72
2020/12/13 07:43:32;;;;;;;250.33;54.03;;;;;;;9.41;100.00;99583.19;5119123;28;20186;-72
2020/12/13 07:46:19;;;;;;;215.90;51.37;;;;;;;9.39;100.00;99591.88;5119185;28;20217;-73
2020/12/13 07:49:08;;;;;;;212.40;48.47;;;;;;;9.56;100.00;99592.47;5119052;28;20206;-73
2020/12/13 07:51:57;;;;;;;227.57;50.70;;;;;;;9.60;100.00;99597.53;5119263;28;20202;-72
2020/12/13 07:54:42;;;;;;;217.53;49.43;;;;;;;9.49;100.00;99599.44;5119012;28;20331;-72
2020/12/13 07:57:29;;;;;;;247.33;52.67;;;;;;;9.56;100.00;99595.03;5119078;28;20197;-71
2020/12/13 08:00:16;;;;;;;191.77;48.43;;;;;;;9.40;100.00;99601.28;5119010;28;20295;-71
2020/12/13 08:03:01;;;;;;;208.23;48.60;;;;;;;9.43;100.00;99614.16;5098280;28;20198;-72
2020/12/13 08:05:47;;;;;;;248.43;49.90;;;;;;;9.52;100.00;99611.44;5097764;28;20197;-72
2020/12/13 08:08:41;;;;;;;368.77;59.53;;;;;;;9.27;100.00;99605.78;5099699;28;20340;-72
2020/12/13 08:11:27;;;;;;;343.07;56.27;;;;;;;9.28;100.00;99618.66;5098452;28;20204;-72
2020/12/13 08:14:14;;;;;;;285.43;54.97;;;;;;;9.40;100.00;99617.63;5097515;28;20502;-71
2020/12/13 08:17:00;;;;;;;373.60;59.40;;;;;;;9.37;100.00;99627.16;5098324;28;20489;-72
2020/12/13 08:19:48;;;;;;;354.00;62.97;;;;;;;9.21;100.00;99627.34;5098197;28;20609;-71
2020/12/13 08:22:38;;;;;;;313.13;57.17;;;;;;;9.32;100.00;99625.50;5097739;28;20199;-70
2020/12/13 08:25:24;;;;;;;304.77;55.63;;;;;;;9.48;100.00;99626.13;5097507;28;20241;-70
2020/12/13 08:28:15;;;;;;;330.43;59.43;;;;;;;9.25;100.00;99623.88;5097836;28;20683;-70
2020/12/13 08:31:02;;;;;;;350.37;61.63;;;;;;;9.42;100.00;99639.09;5097764;28;20210;-70
2020/12/13 08:33:47;;;;;;;333.07;59.90;;;;;;;9.22;100.00;99641.09;5097374;28;20241;-70
2020/12/13 08:36:35;;;;;;;382.27;62.23;;;;;;;9.04;100.00;99642.22;5097572;28;20729;-70
2020/12/13 08:39:27;;;;;;;314.80;58.70;;;;;;;9.42;100.00;99639.09;5097638;28;20288;-70
2020/12/13 08:42:22;;;;;;;378.77;66.60;;;;;;;9.22;100.00;99646.28;5097543;28;20194;-70
2020/12/13 08:45:11;;;;;;;343.13;61.20;;;;;;;9.19;100.00;99646.34;5097085;28;20195;-70
2020/12/13 08:48:02;;;;;;;302.83;56.20;;;;;;;9.23;100.00;99645.41;5097334;28;20194;-70
2020/12/13 08:50:54;;;;;;;300.67;56.73;;;;;;;9.35;100.00;99644.41;5097762;28;20250;-69
2020/12/13 08:53:39;;;;;;;298.83;59.97;;;;;;;9.19;100.00;99657.47;5097524;28;20227;-69
2020/12/13 08:56:33;;;;;;;277.23;58.70;;;;;;;9.39;100.00;99658.97;5097152;28;20199;-69
2020/12/13 08:59:20;;;;;;;300.67;61.73;;;;;;;9.38;100.00;99662.44;5097419;28;20195;-69
2020/12/13 09:02:06;;;;;;;272.53;55.93;;;;;;;9.31;100.00;99666.81;5097322;28;20202;-69
2020/12/13 09:04:57;;;;;;;248.20;55.57;;;;;;;9.73;100.00;99667.94;5096895;28;20211;-70
2020/12/13 09:07:44;;;;;;;255.00;55.83;;;;;;;9.49;100.00;99673.44;5097140;28;20198;-69
2020/12/13 09:10:41;;;;;;;271.07;56.50;;;;;;;9.58;100.00;99678.50;5096958;28;20613;-69
2020/12/13 09:13:26;;;;;;;259.80;55.17;;;;;;;9.30;100.00;99678.88;5096744;28;20710;-69
2020/12/13 09:16:28;;;;;;;246.73;54.93;;;;;;;9.57;100.00;99671.63;5096992;28;20202;-69
2020/12/13 09:19:14;;;;;;;216.00;53.53;;;;;;;9.28;100.00;99679.75;5097387;28;20261;-69
2020/12/13 09:22:01;;;;;;;234.97;52.87;;;;;;;9.43;100.00;99689.00;5096482;28;20203;-69
2020/12/13 09:24:49;;;;;;;246.27;56.47;;;;;;;9.46;100.00;99691.56;5096555;28;20345;-69
2020/12/13 09:27:34;;;;;;;242.57;56.60;;;;;;;9.23;100.00;99697.88;5097231;28;20206;-69
2020/12/13 09:30:22;;;;;;;212.07;53.60;;;;;;;9.52;100.00;99699.22;5096903;28;20199;-69
2020/12/13 09:33:12;;;;;;;236.37;58.10;;;;;;;9.33;100.00;99709.81;5096714;28;20195;-69
2020/12/13 09:36:01;;;;;;;218.47;52.07;;;;;;;9.43;100.00;99709.66;5096973;28;20269;-69
2020/12/13 09:38:47;;;;;;;223.20;53.93;;;;;;;9.36;100.00;99714.06;5096904;28;20199;-69
2020/12/13 09:41:33;;;;;;;230.33;54.27;;;;;;;9.35;100.00;99707.19;5099998;28;20199;-69
2020/12/13 09:44:19;;;;;;;192.17;52.67;;;;;;;9.41;100.00;99714.00;5100572;28;20333;-70
2020/12/13 09:47:08;;;;;;;214.40;56.30;;;;;;;9.67;100.00;99715.34;5100690;28;20200;-69
2020/12/13 09:49:58;;;;;;;225.03;55.53;;;;;;;9.44;100.00;99713.97;5101080;28;20497;-69
2020/12/13 09:52:44;;;;;;;205.50;51.90;;;;;;;9.67;100.00;99719.66;5100866;28;20250;-69
2020/12/13 09:55:30;;;;;;;206.73;53.20;;;;;;;9.74;100.00;99731.63;5100676;28;20232;-69
2020/12/13 09:58:16;;;;;;;187.27;50.60;;;;;;;9.82;100.00;99727.19;5100695;28;20343;-69
2020/12/13 10:01:03;;;;;;;175.63;50.30;;;;;;;10.27;100.00;99727.41;5100671;28;20324;-69
2020/12/13 10:03:51;;;;;;;191.50;51.23;;;;;;;9.98;100.00;99726.13;5101122;28;20273;-69
2020/12/13 10:09:43;;;;;;;178.53;49.67;;;;;;;9.89;100.00;99728.81;5100011;28;20226;-69
2020/12/13 10:12:29;;;;;;;161.33;48.93;;;;;;;9.41;100.00;99730.34;5099745;28;20600;-69
2020/12/13 10:15:15;;;;;;;159.50;48.90;;;;;;;9.51;100.00;99736.25;5099893;28;20226;-69
2020/12/13 10:18:01;;;;;;;172.73;49.67;;;;;;;9.40;100.00;99735.50;5099898;28;20265;-71
2020/12/13 10:20:47;;;;;;;166.70;48.90;;;;;;;9.74;100.00;99734.22;5099763;28;20473;-69
2020/12/13 10:23:32;;;;;;;178.30;52.43;;;;;;;10.01;100.00;99731.22;5099245;28;20613;-69
2020/12/13 10:26:21;;;;;;;151.67;47.40;;;;;;;9.73;100.00;99735.09;5099780;28;20196;-69
2020/12/13 10:29:09;;;;;;;152.30;47.70;;;;;;;9.79;100.00;99744.50;5099645;28;20536;-69
2020/12/13 10:31:56;;;;;;;140.37;44.83;;;;;;;9.77;100.00;99736.75;5099649;28;20245;-69
2020/12/13 10:34:47;;;;;;;152.63;47.20;;;;;;;9.79;100.00;99737.56;5099629;28;20317;-69
2020/12/13 10:37:33;;;;;;;140.80;45.17;;;;;;;9.90;100.00;99742.59;5100180;28;20481;-70
2020/12/13 10:40:19;;;;;;;137.10;44.03;;;;;;;9.70;100.00;99739.44;5099310;28;20200;-70
2020/12/13 10:43:05;;;;;;;148.90;44.97;;;;;;;9.77;100.00;99741.06;5099397;28;20196;-70
2020/12/13 10:45:51;;;;;;;135.97;46.63;;;;;;;9.87;100.00;99740.06;5099391;28;20264;-69
2020/12/13 10:48:39;;;;;;;121.90;44.37;;;;;;;10.12;100.00;99740.53;5099204;28;20301;-69
2020/12/13 10:51:24;;;;;;;133.93;47.77;;;;;;;9.71;100.00;99742.00;5098605;28;20204;-70
2020/12/13 10:54:10;;;;;;;124.03;44.10;;;;;;;9.74;100.00;99738.53;5099010;28;20231;-70
2020/12/13 10:56:59;;;;;;;125.40;44.53;;;;;;;9.73;100.00;99748.00;5099037;28;20349;-70
2020/12/13 10:59:45;;;;;;;127.80;46.20;;;;;;;9.90;100.00;99743.44;5098433;28;20196;-70
2020/12/13 11:02:34;;;;;;;128.03;45.80;;;;;;;9.61;100.00;99741.25;5098696;28;20584;-69
2020/12/13 11:05:20;;;;;;;128.50;47.57;;;;;;;9.61;100.00;99736.09;5098754;28;20532;-69
2020/12/13 11:08:10;;;;;;;139.07;49.27;;;;;;;9.68;100.00;99747.19;5100098;28;20299;-70
2020/12/13 11:10:56;;;;;;;138.00;50.23;;;;;;;9.62;100.00;99742.97;5099151;28;20213;-70
2020/12/13 11:13:42;;;;;;;115.00;46.10;;;;;;;9.24;100.00;99742.59;5098401;28;20280;-69
2020/12/13 11:16:28;;;;;;;117.77;44.77;;;;;;;9.18;100.00;99743.53;5099111;28;20629;-70
2020/12/13 11:19:19;;;;;;;127.67;44.07;;;;;;;9.57;100.00;99744.78;5098692;28;20254;-70
2020/12/13 11:22:05;;;;;;;115.60;44.63;;;;;;;9.20;100.00;99746.94;5098511;28;20486;-69
2020/12/13 11:24:53;;;;;;;113.23;44.77;;;;;;;9.37;100.00;99740.75;5098882;28;20253;-69
2020/12/13 11:27:39;;;;;;;113.30;45.17;;;;;;;8.96;100.00;99740.34;5098640;28;20277;-69
2020/12/13 11:30:24;;;;;;;111.93;48.40;;;;;;;8.85;100.00;99739.59;5098659;28;20203;-69
2020/12/13 11:33:11;;;;;;;137.67;49.53;;;;;;;8.95;100.00;99748.94;5098750;28;20281;-69
2020/12/13 11:35:57;;;;;;;133.47;48.57;;;;;;;8.91;100.00;99746.41;5098427;28;20230;-69
2020/12/13 11:38:43;;;;;;;117.57;49.27;;;;;;;8.97;100.00;99752.38;5098775;28;20318;-70
2020/12/13 11:41:29;;;;;;;133.93;49.97;;;;;;;9.13;100.00;99753.06;5098113;28;20233;-69
2020/12/13 11:44:14;;;;;;;133.13;51.00;;;;;;;9.16;100.00;99754.75;5098151;28;20276;-69
2020/12/13 11:47:03;;;;;;;120.87;47.77;;;;;;;9.17;100.00;99761.63;5098261;28;20199;-69
2020/12/13 11:49:49;;;;;;;115.07;45.83;;;;;;;8.80;100.00;99755.97;5098342;28;20200;-69
2020/12/13 11:52:39;;;;;;;123.80;49.03;;;;;;;8.93;100.00;99760.16;5098731;28;20636;-69
2020/12/13 11:55:24;;;;;;;119.50;47.90;;;;;;;8.89;100.00;99755.91;5097991;28;20243;-69
2020/12/13 11:58:11;;;;;;;119.83;49.40;;;;;;;9.02;100.00;99769.50;5098179;28;20330;-69
2020/12/13 12:00:57;;;;;;;112.40;49.47;;;;;;;8.99;100.00;99755.75;5098105;28;20199;-69
2020/12/13 12:03:44;;;;;;;131.47;51.03;;;;;;;8.91;100.00;99765.31;5096990;28;20207;-69
2020/12/13 12:06:30;;;;;;;115.17;48.40;;;;;;;8.81;100.00;99763.69;5098201;28;20305;-69
2020/12/13 12:09:20;;;;;;;121.00;48.20;;;;;;;8.93;100.00;99763.59;5097204;28;20276;-69
2020/12/13 12:12:06;;;;;;;107.03;46.77;;;;;;;8.98;100.00;99771.28;5097276;28;20369;-70
2020/12/13 12:14:54;;;;;;;119.23;50.53;;;;;;;9.11;100.00;99767.69;5060723;28;20291;-70
2020/12/13 12:17:40;;;;;;;107.60;43.40;;;;;;;9.03;100.00;99764.34;5056859;28;20211;-69
2020/12/13 12:20:27;;;;;;;94.03;42.50;;;;;;;9.09;100.00;99771.16;5065855;28;20556;-69
2020/12/13 12:23:19;;;;;;;98.37;43.47;;;;;;;9.18;100.00;99769.34;5076720;28;20254;-70
2020/12/13 12:26:06;;;;;;;79.73;38.80;;;;;;;8.99;100.00;99768.66;5077341;28;20200;-69
2020/12/13 12:28:53;;;;;;;77.53;38.40;;;;;;;9.17;100.00;99771.94;5077431;28;20712;-70
2020/12/13 12:31:42;;;;;;;72.57;36.83;;;;;;;9.20;100.00;99770.16;5076860;28;20287;-70
2020/12/13 12:34:28;;;;;;;56.37;33.27;;;;;;;9.22;100.00;99773.59;5076462;28;20224;-69
2020/12/13 12:37:13;;;;;;;63.67;34.63;;;;;;;9.20;100.00;99770.16;5076760;28;20200;-69
2020/12/13 12:40:00;;;;;;;58.53;33.50;;;;;;;9.36;100.00;99767.44;5077515;28;20203;-69
2020/12/13 12:42:47;;;;;;;58.80;34.50;;;;;;;9.56;100.00;99768.03;5077079;28;20541;-70